createdAt,value
2023-05-19T00:00:29.043Z,89.87
2023-05-19T00:03:00.884Z,89.94
2023-05-19T00:05:35.777Z,89.84
2023-05-19T00:08:07.958Z,89.92
2023-05-19T00:10:39.547Z,90.22
2023-05-19T00:13:10.887Z,90.03
2023-05-19T00:15:42.552Z,90.14
2023-05-19T00:18:14.397Z,90.11
2023-05-19T00:20:47.905Z,89.77
2023-05-19T00:23:18.694Z,90.05
2023-05-19T00:25:49.419Z,89.99
2023-05-19T00:28:20.267Z,90.05
2023-05-19T00:30:51.124Z,89.92
2023-05-19T00:33:22.037Z,89.90
2023-05-19T00:35:55.668Z,89.73
2023-05-19T00:38:26.576Z,89.61
2023-05-19T00:40:57.511Z,89.64
2023-05-19T00:43:28.636Z,89.75
2023-05-19T00:45:59.802Z,89.73
2023-05-19T00:48:30.959Z,89.91
2023-05-19T00:51:06.889Z,90.01
2023-05-19T00:53:38.725Z,90.00
2023-05-19T00:56:09.857Z,90.25
2023-05-19T00:58:40.848Z,90.24
2023-05-19T01:01:17.480Z,90.36
2023-05-19T01:03:49.280Z,90.60
2023-05-19T01:06:23.000Z,90.54
2023-05-19T01:08:54.803Z,90.56
2023-05-19T01:11:25.548Z,90.61
2023-05-19T01:13:56.460Z,90.76
2023-05-19T01:16:33.534Z,90.53
2023-05-19T01:19:11.173Z,90.75
2023-05-19T01:22:15.839Z,90.52
2023-05-19T01:25:20.366Z,90.75
2023-05-19T01:28:27.229Z,90.71
2023-05-19T01:31:01.737Z,91.00
2023-05-19T01:33:34.334Z,90.60
2023-05-19T01:36:07.013Z,90.90
2023-05-19T01:38:41.504Z,90.62
2023-05-19T01:41:13.735Z,90.68
2023-05-19T01:43:44.686Z,90.61
2023-05-19T01:46:18.869Z,90.71
2023-05-19T01:48:51.645Z,90.44
2023-05-19T01:51:23.826Z,90.38
2023-05-19T01:53:54.702Z,90.48
2023-05-19T01:56:37.384Z,90.60
2023-05-19T01:59:20.004Z,90.69
2023-05-19T02:01:57.227Z,90.47
2023-05-19T02:04:40.523Z,90.65
2023-05-19T02:07:18.602Z,90.66
2023-05-19T02:10:04.319Z,90.67
2023-05-19T02:12:40.565Z,90.62
2023-05-19T02:15:17.541Z,90.78
2023-05-19T02:17:54.777Z,90.85
2023-05-19T02:20:45.443Z,91.15
2023-05-19T02:23:16.161Z,91.19
2023-05-19T02:25:47.035Z,91.14
2023-05-19T02:28:17.917Z,91.31
2023-05-19T02:30:48.699Z,91.31
2023-05-19T02:33:24.989Z,91.09
2023-05-19T02:35:56.682Z,91.16
2023-05-19T02:38:27.974Z,91.22
2023-05-19T02:40:59.005Z,91.22
2023-05-19T02:43:30.931Z,91.25
2023-05-19T02:46:01.773Z,91.45
2023-05-19T02:48:35.416Z,91.45
2023-05-19T02:51:07.957Z,91.33
2023-05-19T02:53:39.877Z,91.31
2023-05-19T02:56:10.749Z,91.29
2023-05-19T02:58:43.429Z,91.48
2023-05-19T03:01:14.589Z,91.62
2023-05-19T03:03:48.003Z,91.59
2023-05-19T03:06:18.821Z,91.52
2023-05-19T03:08:49.696Z,91.36
2023-05-19T03:11:21.103Z,91.49
2023-05-19T03:13:51.868Z,91.65
2023-05-19T03:16:22.645Z,91.53
2023-05-19T03:18:57.516Z,91.42
2023-05-19T03:21:28.372Z,91.40
2023-05-19T03:23:59.212Z,91.33
2023-05-19T03:26:30.138Z,91.51
2023-05-19T03:29:01.359Z,91.42
2023-05-19T03:31:34.125Z,91.40
2023-05-19T03:34:07.994Z,91.23
2023-05-19T03:36:39.695Z,91.06
2023-05-19T03:39:15.322Z,90.89
2023-05-19T03:41:47.881Z,90.94
2023-05-19T03:44:19.231Z,90.90
2023-05-19T03:46:49.961Z,91.15
2023-05-19T03:49:43.994Z,91.17
2023-05-19T03:52:34.698Z,90.98
2023-05-19T03:55:24.500Z,90.87
2023-05-19T03:57:55.669Z,91.04
2023-05-19T04:00:27.023Z,91.05
2023-05-19T04:02:58.518Z,91.01
2023-05-19T04:05:31.926Z,90.88
2023-05-19T04:08:04.431Z,90.84
2023-05-19T04:10:35.236Z,90.85
2023-05-19T04:13:08.555Z,90.75
2023-05-19T04:15:39.541Z,90.51
2023-05-19T04:18:10.439Z,90.34
2023-05-19T04:20:47.180Z,90.04
2023-05-19T04:23:18.025Z,89.57
2023-05-19T04:25:49.110Z,89.69
2023-05-19T04:28:19.998Z,89.49
2023-05-19T04:30:50.916Z,89.68
2023-05-19T04:33:21.926Z,89.45
2023-05-19T04:35:55.338Z,89.41
2023-05-19T04:38:26.188Z,89.00
2023-05-19T04:40:56.903Z,89.13
2023-05-19T04:43:28.676Z,88.94
2023-05-19T04:46:00.222Z,88.71
2023-05-19T04:48:31.428Z,88.71
2023-05-19T04:51:05.429Z,88.89
2023-05-19T04:53:37.296Z,88.92
2023-05-19T04:56:15.638Z,89.62
2023-05-19T04:58:48.341Z,89.82
2023-05-19T05:01:21.783Z,89.71
2023-05-19T05:03:55.492Z,89.11
2023-05-19T05:06:29.176Z,88.48
2023-05-19T05:09:00.323Z,87.25
2023-05-19T05:11:32.263Z,86.41
2023-05-19T05:14:04.970Z,85.43
2023-05-19T05:16:38.190Z,84.45
2023-05-19T05:19:10.816Z,83.82
2023-05-19T05:21:46.586Z,83.44
2023-05-19T05:24:19.054Z,82.21
2023-05-19T05:26:57.363Z,81.53
2023-05-19T05:29:28.199Z,81.15
2023-05-19T05:31:59.783Z,80.33
2023-05-19T05:34:30.924Z,79.15
2023-05-19T05:37:04.255Z,78.06
2023-05-19T05:39:35.254Z,75.87
2023-05-19T05:42:06.233Z,74.87
2023-05-19T05:44:37.434Z,73.84
2023-05-19T05:47:12.316Z,71.55
2023-05-19T05:49:44.346Z,70.99
2023-05-19T05:52:20.110Z,69.13
2023-05-19T05:54:54.140Z,66.72
2023-05-19T05:57:25.992Z,66.35
2023-05-19T05:59:56.691Z,64.91
2023-05-19T06:02:28.070Z,63.25
2023-05-19T06:05:02.905Z,61.79
2023-05-19T06:07:37.933Z,61.92
2023-05-19T06:10:10.777Z,61.03
2023-05-19T06:12:43.587Z,61.22
2023-05-19T06:15:15.726Z,59.35
2023-05-19T06:17:54.995Z,58.90
2023-05-19T06:20:25.997Z,57.83
2023-05-19T06:22:59.537Z,58.04
2023-05-19T06:25:31.718Z,57.49
2023-05-19T06:28:02.781Z,56.50
2023-05-19T06:30:33.865Z,56.91
2023-05-19T06:33:14.300Z,56.26
2023-05-19T06:35:45.212Z,55.87
2023-05-19T06:38:18.806Z,54.73
2023-05-19T06:40:49.581Z,53.59
2023-05-19T06:43:20.430Z,51.41
2023-05-19T06:45:59.055Z,51.13
2023-05-19T06:48:30.355Z,49.62
2023-05-19T06:51:03.426Z,49.61
2023-05-19T06:53:39.171Z,48.62
2023-05-19T06:56:12.860Z,49.39
2023-05-19T06:58:44.456Z,50.96
2023-05-19T07:01:16.191Z,50.18
2023-05-19T07:03:52.753Z,49.99
2023-05-19T07:06:25.304Z,48.69
2023-05-19T07:08:59.515Z,48.65
2023-05-19T07:11:30.771Z,48.25
2023-05-19T07:14:02.370Z,47.50
2023-05-19T07:16:35.744Z,45.93
2023-05-19T07:19:06.690Z,46.38
2023-05-19T07:21:37.740Z,45.34
2023-05-19T07:24:11.514Z,45.05
2023-05-19T07:26:43.006Z,44.21
2023-05-19T07:29:13.891Z,41.70
2023-05-19T07:31:44.676Z,42.16
2023-05-19T07:34:15.672Z,42.21
2023-05-19T07:36:46.497Z,42.38
2023-05-19T07:39:20.376Z,42.94
2023-05-19T07:41:55.866Z,42.61
2023-05-19T07:44:27.464Z,42.33
2023-05-19T07:46:58.265Z,41.95
2023-05-19T07:49:29.821Z,42.59
2023-05-19T07:52:00.844Z,42.85
2023-05-19T07:54:34.637Z,42.42
2023-05-19T07:57:05.371Z,42.29
2023-05-19T07:59:36.384Z,42.28
2023-05-19T08:02:07.421Z,41.68
2023-05-19T08:04:38.322Z,42.84
2023-05-19T08:07:09.206Z,42.57
2023-05-19T08:09:42.693Z,43.37
2023-05-19T08:12:13.580Z,42.46
2023-05-19T08:14:44.360Z,42.02
2023-05-19T08:17:15.270Z,41.50
2023-05-19T08:19:46.281Z,40.94
2023-05-19T08:22:17.194Z,40.66
2023-05-19T08:24:52.022Z,41.65
2023-05-19T08:27:22.810Z,41.62
2023-05-19T08:29:53.596Z,42.51
2023-05-19T08:32:24.527Z,43.07
2023-05-19T08:34:55.451Z,43.30
2023-05-19T08:37:26.339Z,43.79
2023-05-19T08:39:59.847Z,45.10
2023-05-19T08:42:30.737Z,44.50
2023-05-19T08:45:01.576Z,45.41
2023-05-19T08:47:36.974Z,44.51
2023-05-19T08:50:11.299Z,44.59
2023-05-19T08:52:53.021Z,45.00
2023-05-19T08:55:40.023Z,45.16
2023-05-19T08:58:12.356Z,44.99
2023-05-19T09:00:43.360Z,45.71
2023-05-19T09:03:22.806Z,45.79
2023-05-19T09:05:54.942Z,45.79
2023-05-19T09:08:25.904Z,45.10
2023-05-19T09:10:59.347Z,44.34
2023-05-19T09:13:30.315Z,43.68
2023-05-19T09:16:02.388Z,44.05
2023-05-19T09:18:33.951Z,44.37
2023-05-19T09:21:05.622Z,43.51
2023-05-19T09:23:37.886Z,43.91
2023-05-19T09:26:11.311Z,42.42
2023-05-19T09:28:43.596Z,43.12
2023-05-19T09:31:14.937Z,42.69
2023-05-19T09:33:46.673Z,43.32
2023-05-19T09:36:17.550Z,43.15
2023-05-19T09:38:49.601Z,43.94
2023-05-19T09:41:23.605Z,42.71
2023-05-19T09:43:58.348Z,42.88
2023-05-19T09:46:30.512Z,42.97
2023-05-19T09:49:01.681Z,42.50
2023-05-19T09:51:32.915Z,41.85
2023-05-19T09:54:04.760Z,41.57
2023-05-19T09:56:39.865Z,42.14
2023-05-19T09:59:13.856Z,41.28
2023-05-19T10:01:47.067Z,40.54
2023-05-19T10:04:18.980Z,41.64
2023-05-19T10:06:53.959Z,41.67
2023-05-19T10:09:27.439Z,41.61
2023-05-19T10:12:02.437Z,40.39
2023-05-19T10:14:33.630Z,40.10
2023-05-19T10:17:04.592Z,39.55
2023-05-19T10:19:35.524Z,39.53
2023-05-19T10:22:06.812Z,39.20
2023-05-19T10:24:37.780Z,39.70
2023-05-19T10:27:17.442Z,39.74
2023-05-19T10:29:53.893Z,39.91
2023-05-19T10:32:30.145Z,40.13
2023-05-19T10:35:19.906Z,39.74
2023-05-19T10:37:59.769Z,41.15
2023-05-19T10:40:34.684Z,41.27
2023-05-19T10:43:31.490Z,40.51
2023-05-19T10:46:02.862Z,40.84
2023-05-19T10:48:40.279Z,39.31
2023-05-19T10:51:12.807Z,39.34
2023-05-19T10:53:46.750Z,40.24
2023-05-19T10:56:34.333Z,38.39
2023-05-19T10:59:07.979Z,39.61
2023-05-19T11:01:41.932Z,39.93
2023-05-19T11:04:15.253Z,39.82
2023-05-19T11:06:54.519Z,38.31
2023-05-19T11:09:37.936Z,38.24
2023-05-19T11:12:13.673Z,37.35
2023-05-19T11:14:47.703Z,36.65
2023-05-19T11:17:19.429Z,37.34
2023-05-19T11:19:57.690Z,37.83
2023-05-19T11:22:29.724Z,38.26
2023-05-19T11:25:01.199Z,37.27
2023-05-19T11:27:36.044Z,37.90
2023-05-19T11:30:15.317Z,37.67
2023-05-19T11:32:47.361Z,37.54
2023-05-19T11:35:21.422Z,38.93
2023-05-19T11:37:53.009Z,39.84
2023-05-19T11:40:25.099Z,39.10
2023-05-19T11:42:56.365Z,40.04
2023-05-19T11:45:35.545Z,38.60
2023-05-19T11:48:07.256Z,39.44
2023-05-19T11:50:38.822Z,37.58
2023-05-19T11:53:09.811Z,38.17
2023-05-19T11:55:46.949Z,39.28
2023-05-19T11:58:18.893Z,39.86
2023-05-19T12:00:53.241Z,39.23
2023-05-19T12:03:28.942Z,39.11
2023-05-19T12:06:00.157Z,39.49
2023-05-19T12:08:32.525Z,40.01
2023-05-19T12:11:03.373Z,39.92
2023-05-19T12:13:34.309Z,40.29
2023-05-19T12:16:08.194Z,39.95
2023-05-19T12:18:41.152Z,39.18
2023-05-19T12:21:12.580Z,40.00
2023-05-19T12:23:44.668Z,40.56
2023-05-19T12:26:15.661Z,41.30
2023-05-19T12:28:48.546Z,40.55
2023-05-19T12:31:23.952Z,40.53
2023-05-19T12:33:54.948Z,40.05
2023-05-19T12:36:28.902Z,39.96
2023-05-19T12:38:59.923Z,39.78
2023-05-19T12:41:30.659Z,39.90
2023-05-19T12:44:01.433Z,40.67
2023-05-19T12:46:36.254Z,39.56
2023-05-19T12:49:06.784Z,39.18
2023-05-19T12:51:37.746Z,40.03
2023-05-19T12:54:08.731Z,39.60
2023-05-19T12:56:39.543Z,39.30
2023-05-19T12:59:10.417Z,39.04
2023-05-19T13:01:44.017Z,39.96
2023-05-19T13:04:14.931Z,40.02
2023-05-19T13:06:47.778Z,39.95
2023-05-19T13:09:19.310Z,40.28
2023-05-19T13:11:52.563Z,39.64
2023-05-19T13:14:23.530Z,39.71
2023-05-19T13:16:58.259Z,39.89
2023-05-19T13:19:29.501Z,40.55
2023-05-19T13:22:00.454Z,40.74
2023-05-19T13:24:31.264Z,41.34
2023-05-19T13:27:03.526Z,41.20
2023-05-19T13:29:34.367Z,40.49
2023-05-19T13:32:09.071Z,41.18
2023-05-19T13:34:39.906Z,41.23
2023-05-19T13:37:11.993Z,41.40
2023-05-19T13:39:42.842Z,41.13
2023-05-19T13:42:13.577Z,40.91
2023-05-19T13:44:44.361Z,39.36
2023-05-19T13:47:17.849Z,39.05
2023-05-19T13:49:48.715Z,39.81
2023-05-19T13:52:19.547Z,40.73
2023-05-19T13:54:50.834Z,43.18
2023-05-19T13:57:21.602Z,44.57
2023-05-19T14:00:01.617Z,46.64
2023-05-19T14:02:45.610Z,49.81
2023-05-19T14:05:16.546Z,49.60
2023-05-19T14:07:47.439Z,50.90
2023-05-19T14:10:18.281Z,52.02
2023-05-19T14:13:18.276Z,54.05
2023-05-19T14:15:41.591Z,57.46
2023-05-19T14:18:15.022Z,57.31
2023-05-19T14:20:45.953Z,59.58
2023-05-19T14:23:17.412Z,60.46
2023-05-19T14:25:48.185Z,61.67
2023-05-19T14:28:18.978Z,64.36
2023-05-19T14:30:50.388Z,66.13
2023-05-19T14:33:24.134Z,65.77
2023-05-19T14:35:55.752Z,67.09
2023-05-19T14:38:27.715Z,68.10
2023-05-19T14:41:00.220Z,68.38
2023-05-19T14:43:31.443Z,69.55
2023-05-19T14:46:02.553Z,70.11
2023-05-19T14:48:36.015Z,70.30
2023-05-19T14:51:06.988Z,70.95
2023-05-19T14:53:37.887Z,71.30
2023-05-19T14:56:10.095Z,71.98
2023-05-19T14:58:40.880Z,72.17
2023-05-19T15:01:11.730Z,72.29
2023-05-19T15:03:45.507Z,72.50
2023-05-19T15:06:16.407Z,73.02
2023-05-19T15:08:47.313Z,72.71
2023-05-19T15:11:18.253Z,73.27
2023-05-19T15:13:49.001Z,73.30
2023-05-19T15:16:20.134Z,73.35
2023-05-19T15:18:54.635Z,73.61
2023-05-19T15:21:25.378Z,73.62
2023-05-19T15:23:56.000Z,73.64
2023-05-19T15:26:29.042Z,73.95
2023-05-19T15:29:00.631Z,74.12
2023-05-19T15:31:31.583Z,74.03
2023-05-19T15:34:05.085Z,74.62
2023-05-19T15:36:35.915Z,74.08
2023-05-19T15:39:06.886Z,74.22
2023-05-19T15:41:37.782Z,74.16
2023-05-19T15:44:08.759Z,75.00
2023-05-19T15:46:39.846Z,74.84
2023-05-19T15:49:13.314Z,74.32
2023-05-19T15:51:44.942Z,74.57
2023-05-19T15:54:15.774Z,74.60
2023-05-19T15:56:46.669Z,75.05
2023-05-19T15:59:17.478Z,74.83
2023-05-19T16:01:49.497Z,74.88
2023-05-19T16:04:24.477Z,75.43
2023-05-19T16:06:55.310Z,75.29
2023-05-19T16:09:26.357Z,75.12
2023-05-19T16:11:57.222Z,74.97
2023-05-19T16:14:31.387Z,74.69
2023-05-19T16:17:02.218Z,74.63
2023-05-19T16:19:35.668Z,75.64
2023-05-19T16:22:06.567Z,76.23
2023-05-19T16:24:37.336Z,76.80
2023-05-19T16:27:08.774Z,76.05
2023-05-19T16:29:39.668Z,76.34
2023-05-19T16:32:11.129Z,76.76
2023-05-19T16:34:44.686Z,77.26
2023-05-19T16:37:15.532Z,77.57
2023-05-19T16:39:48.747Z,77.40
2023-05-19T16:42:19.758Z,77.68
2023-05-19T16:44:50.569Z,77.89
2023-05-19T16:47:21.478Z,77.85
2023-05-19T16:49:54.987Z,77.99
2023-05-19T16:52:25.827Z,77.94
2023-05-19T16:54:56.578Z,77.98
2023-05-19T16:57:27.509Z,78.59
2023-05-19T16:59:58.314Z,78.32
2023-05-19T17:02:29.316Z,78.33
2023-05-19T17:05:03.062Z,78.68
2023-05-19T17:07:34.373Z,78.42
2023-05-19T17:10:05.230Z,79.15
2023-05-19T17:12:36.786Z,79.07
2023-05-19T17:15:08.719Z,78.99
2023-05-19T17:17:39.770Z,79.10
2023-05-19T17:20:14.897Z,78.98
2023-05-19T17:22:45.800Z,79.22
2023-05-19T17:25:16.792Z,79.16
2023-05-19T17:27:47.602Z,79.17
2023-05-19T17:30:18.347Z,79.08
2023-05-19T17:32:49.900Z,79.46
2023-05-19T17:35:23.442Z,79.38
2023-05-19T17:37:54.243Z,79.34
2023-05-19T17:40:25.101Z,79.43
2023-05-19T17:42:55.985Z,79.74
2023-05-19T17:45:27.386Z,79.68
2023-05-19T17:47:58.271Z,79.51
2023-05-19T17:50:31.889Z,79.53
2023-05-19T17:53:03.753Z,79.38
2023-05-19T17:55:35.426Z,79.06
2023-05-19T17:58:07.123Z,78.92
2023-05-19T18:00:38.541Z,78.71
2023-05-19T18:03:10.357Z,78.96
2023-05-19T18:05:45.061Z,79.04
2023-05-19T18:08:16.945Z,79.23
2023-05-19T18:10:48.971Z,79.50
2023-05-19T18:13:19.782Z,80.04
2023-05-19T18:15:50.721Z,79.69
2023-05-19T18:18:21.656Z,79.91
2023-05-19T18:20:55.311Z,80.02
2023-05-19T18:23:26.191Z,80.05
2023-05-19T18:25:58.353Z,80.15
2023-05-19T18:28:30.048Z,80.04
2023-05-19T18:31:03.755Z,80.17
2023-05-19T18:33:34.857Z,80.07
2023-05-19T18:36:08.738Z,80.46
2023-05-19T18:38:39.617Z,79.91
2023-05-19T18:41:12.040Z,79.86
2023-05-19T18:43:43.511Z,80.05
2023-05-19T18:46:14.955Z,79.98
2023-05-19T18:48:46.501Z,79.83
2023-05-19T18:51:22.185Z,79.72
2023-05-19T18:53:54.017Z,80.05
2023-05-19T18:56:28.787Z,80.27
2023-05-19T18:59:00.952Z,80.27
2023-05-19T19:01:32.068Z,80.27
2023-05-19T19:04:03.769Z,80.62
2023-05-19T19:06:38.836Z,80.61
2023-05-19T19:09:09.815Z,80.69
2023-05-19T19:11:40.668Z,80.67
2023-05-19T19:14:11.557Z,80.96
2023-05-19T19:16:42.390Z,81.06
2023-05-19T19:19:16.454Z,81.52
2023-05-19T19:21:49.910Z,81.35
2023-05-19T19:24:20.733Z,81.48
2023-05-19T19:26:51.480Z,81.26
2023-05-19T19:29:22.404Z,81.13
2023-05-19T19:31:53.332Z,81.08
2023-05-19T19:34:24.252Z,80.92
2023-05-19T19:36:57.731Z,81.18
2023-05-19T19:39:28.693Z,81.00
2023-05-19T19:41:59.469Z,81.21
2023-05-19T19:44:30.294Z,81.21
2023-05-19T19:47:01.093Z,81.14
2023-05-19T19:49:32.103Z,81.45
2023-05-19T19:52:05.566Z,81.13
2023-05-19T19:54:37.265Z,81.04
2023-05-19T19:57:08.780Z,81.05
2023-05-19T19:59:39.703Z,81.58
2023-05-19T20:02:10.515Z,81.61
2023-05-19T20:04:41.614Z,81.70
2023-05-19T20:07:19.521Z,81.79
2023-05-19T20:09:51.975Z,81.72
2023-05-19T20:12:22.791Z,81.70
2023-05-19T20:14:56.355Z,81.78
2023-05-19T20:17:27.263Z,81.94
2023-05-19T20:19:58.742Z,81.93
2023-05-19T20:22:32.183Z,81.68
2023-05-19T20:25:03.156Z,81.88
2023-05-19T20:27:36.129Z,82.14
2023-05-19T20:30:07.458Z,82.28
2023-05-19T20:32:38.492Z,82.19
2023-05-19T20:35:10.242Z,81.96
2023-05-19T20:37:43.688Z,81.95
2023-05-19T20:40:14.995Z,81.90
2023-05-19T20:42:45.794Z,81.91
2023-05-19T20:45:16.964Z,81.86
2023-05-19T20:47:47.963Z,81.87
2023-05-19T20:50:18.917Z,81.80
2023-05-19T20:52:52.427Z,81.62
2023-05-19T20:55:23.279Z,81.45
2023-05-19T20:57:54.105Z,81.63
2023-05-19T21:00:28.741Z,81.67
2023-05-19T21:03:01.242Z,81.55
2023-05-19T21:05:32.756Z,81.28
2023-05-19T21:08:06.694Z,81.47
2023-05-19T21:10:37.658Z,81.38
2023-05-19T21:13:08.499Z,81.33
2023-05-19T21:15:39.263Z,81.36
2023-05-19T21:18:11.846Z,81.11
2023-05-19T21:20:43.107Z,81.11
2023-05-19T21:23:17.016Z,81.53
2023-05-19T21:25:48.124Z,81.56
2023-05-19T21:28:19.085Z,81.62
2023-05-19T21:30:51.330Z,81.77
2023-05-19T21:33:22.500Z,81.79
2023-05-19T21:35:53.398Z,81.91
2023-05-19T21:38:26.766Z,82.17
2023-05-19T21:40:57.950Z,82.36
2023-05-19T21:43:28.835Z,82.37
2023-05-19T21:46:01.055Z,82.34
2023-05-19T21:48:32.311Z,82.24
2023-05-19T21:51:03.384Z,82.14
2023-05-19T21:53:36.835Z,82.14
2023-05-19T21:56:08.165Z,82.25
2023-05-19T21:58:39.001Z,82.30
2023-05-19T22:01:10.014Z,82.26
2023-05-19T22:03:40.964Z,82.54
2023-05-19T22:06:12.062Z,82.42
2023-05-19T22:08:45.472Z,82.52
2023-05-19T22:11:18.437Z,82.31
2023-05-19T22:13:49.247Z,82.56
2023-05-19T22:16:20.278Z,82.55
2023-05-19T22:18:51.096Z,82.63
2023-05-19T22:21:22.216Z,82.62
2023-05-19T22:23:56.090Z,82.71
2023-05-19T22:26:27.580Z,82.88
2023-05-19T22:28:58.727Z,82.70
2023-05-19T22:31:29.604Z,82.65
2023-05-19T22:34:00.455Z,82.59
2023-05-19T22:36:31.535Z,82.64
2023-05-19T22:39:04.939Z,82.66
2023-05-19T22:41:35.942Z,82.55
2023-05-19T22:44:07.130Z,82.56
2023-05-19T22:46:38.080Z,82.45
2023-05-19T22:49:10.853Z,82.70
2023-05-19T22:51:42.388Z,82.55
2023-05-19T22:54:15.990Z,82.49
2023-05-19T22:56:49.096Z,82.55
2023-05-19T22:59:21.922Z,82.67
2023-05-19T23:01:52.848Z,82.67
2023-05-19T23:04:23.702Z,82.69
2023-05-19T23:06:54.686Z,82.51
2023-05-19T23:09:28.213Z,82.73
2023-05-19T23:11:59.219Z,82.51
2023-05-19T23:14:30.077Z,82.54
2023-05-19T23:17:01.125Z,82.54
2023-05-19T23:19:35.687Z,82.27
2023-05-19T23:22:06.584Z,82.31
2023-05-19T23:24:40.289Z,82.58
2023-05-19T23:27:11.173Z,82.40
2023-05-19T23:29:41.978Z,82.59
2023-05-19T23:32:12.774Z,82.51
2023-05-19T23:34:43.519Z,82.55
2023-05-19T23:37:14.652Z,82.73
2023-05-19T23:39:48.176Z,82.47
2023-05-19T23:42:19.114Z,82.53
2023-05-19T23:44:49.882Z,82.55
2023-05-19T23:47:20.720Z,82.55
2023-05-19T23:49:51.569Z,82.61
2023-05-19T23:52:22.447Z,82.57
2023-05-19T23:54:55.910Z,82.74
2023-05-19T23:57:26.790Z,82.64
2023-05-19T23:59:57.541Z,82.76
